Terminal Aerodrome Forecast
Issued by NWS Mt. Holly, NJ

Home | Current Version | Previous Version | Text Only | Print | Product List | Glossary On
Versions: 1 2 3 4 5 6 7 8 9 10 11 12 13
000
FTUS41 KPHI 311720
TAFILG
TAF
KILG 311720Z 3118/0118 15008KT P6SM FEW035
     FM312300 18008KT P6SM SCT030 BKN150
     FM010500 20004KT P6SM -SHRA SCT025 BKN050 OVC150
     FM010800 VRB03KT 3SM -SHRA BKN015 OVC025
     FM011100 34005KT 3SM SHRA SCT008 OVC015
     FM011600 35005KT 6SM -SHRA SCT015 OVC025=

USA.gov is the U.S. government's official web portal to all federal, state and local government web resources and services.